Time;durP1;ratioP1;P1;durP2;ratioP2;P2;SDS_P1;SDS_P2;PMS_P1;PMS_P2;Temp;Humidity;BMP_temperature;BMP_pressure;BME280_temperature;BME280_humidity;BME280_pressure;Samples;Min_cycle;Max_cycle;Signal;HPM_P1;HPM_P2
2021/07/08 00:00:34;;;;;;;8.18;6.15;;;15.10;99.90;;;;;;5081384;28;20404;-66
2021/07/08 00:03:01;;;;;;;5.65;5.18;;;15.10;99.90;;;;;;5076694;28;20112;-66
2021/07/08 00:05:28;;;;;;;7.00;5.75;;;15.10;99.90;;;;;;5081569;28;20040;-66
2021/07/08 00:07:58;;;;;;;11.35;7.50;;;15.10;99.90;;;;;;5079158;28;20478;-66
2021/07/08 00:10:28;;;;;;;5.68;5.18;;;15.10;99.90;;;;;;5084973;28;20024;-66
2021/07/08 00:12:56;;;;;;;6.47;4.15;;;15.10;99.90;;;;;;5074745;28;20066;-66
2021/07/08 00:15:23;;;;;;;4.03;3.28;;;15.10;99.90;;;;;;5077262;28;20791;-66
2021/07/08 00:17:49;;;;;;;6.95;6.28;;;15.00;99.90;;;;;;5081991;28;20032;-66
2021/07/08 00:20:17;;;;;;;8.02;6.32;;;15.00;99.90;;;;;;5081847;28;20036;-66
2021/07/08 00:22:43;;;;;;;7.55;6.85;;;15.00;99.90;;;;;;5077888;28;20083;-66
2021/07/08 00:25:16;;;;;;;6.80;6.20;;;15.00;99.90;;;;;;5082363;28;20064;-66
2021/07/08 00:27:42;;;;;;;6.40;5.57;;;15.00;99.90;;;;;;5081780;28;20036;-66
2021/07/08 00:30:10;;;;;;;6.88;5.13;;;14.90;99.90;;;;;;5083649;28;20040;-66
2021/07/08 00:32:37;;;;;;;6.13;5.53;;;14.90;99.90;;;;;;5077136;28;20074;-66
2021/07/08 00:35:04;;;;;;;6.57;5.88;;;14.90;99.90;;;;;;5080583;28;20062;-66
2021/07/08 00:37:30;;;;;;;5.80;5.25;;;14.90;99.90;;;;;;5079970;28;20029;-66
2021/07/08 00:39:56;;;;;;;5.35;4.95;;;14.90;99.90;;;;;;5081377;28;20103;-66
2021/07/08 00:42:22;;;;;;;5.35;4.85;;;14.90;99.90;;;;;;5076387;28;20839;-66
2021/07/08 00:44:48;;;;;;;4.57;4.18;;;14.90;99.90;;;;;;5079374;28;20170;-66
2021/07/08 00:47:14;;;;;;;3.95;3.58;;;14.90;99.90;;;;;;5079649;28;20524;-66
2021/07/08 00:49:39;;;;;;;4.10;3.28;;;14.80;99.90;;;;;;5078504;28;20035;-66
2021/07/08 00:52:06;;;;;;;7.35;3.92;;;14.90;99.90;;;;;;5076593;28;20055;-66
2021/07/08 00:54:32;;;;;;;5.55;3.33;;;14.80;99.90;;;;;;5080544;28;20618;-66
2021/07/08 00:56:57;;;;;;;4.75;4.25;;;14.90;99.90;;;;;;5077123;28;20036;-66
2021/07/08 00:59:23;;;;;;;8.73;3.95;;;14.90;99.90;;;;;;5081203;28;20052;-66
2021/07/08 01:01:51;;;;;;;3.30;3.10;;;14.90;99.90;;;;;;5079868;28;20061;-66
2021/07/08 01:04:19;;;;;;;3.97;3.58;;;14.90;99.90;;;;;;5076157;28;20037;-66
2021/07/08 01:06:45;;;;;;;7.28;4.40;;;14.90;99.90;;;;;;5080642;28;20161;-66
2021/07/08 01:09:19;;;;;;;5.10;4.55;;;14.90;99.90;;;;;;5082670;28;20070;-66
2021/07/08 01:11:47;;;;;;;7.60;5.68;;;14.90;99.90;;;;;;5077807;28;20146;-66
2021/07/08 01:14:14;;;;;;;6.03;5.18;;;14.90;99.90;;;;;;5077501;28;20044;-67
2021/07/08 01:16:43;;;;;;;9.27;7.63;;;14.90;99.90;;;;;;5080734;28;20069;-66
2021/07/08 01:19:08;;;;;;;10.52;6.28;;;14.90;99.90;;;;;;5077431;28;20118;-66
2021/07/08 01:21:35;;;;;;;8.10;6.32;;;14.80;99.90;;;;;;5079128;28;20930;-66
2021/07/08 01:24:03;;;;;;;6.93;6.18;;;14.80;99.90;;;;;;5075481;28;20036;-66
2021/07/08 01:26:29;;;;;;;7.40;6.45;;;14.80;99.90;;;;;;5079254;28;20039;-66
2021/07/08 01:29:02;;;;;;;7.00;6.20;;;14.80;99.90;;;;;;5080466;28;20075;-66
2021/07/08 01:31:28;;;;;;;9.00;7.25;;;14.80;99.90;;;;;;5077451;28;21344;-66
2021/07/08 01:33:54;;;;;;;8.05;6.70;;;14.80;99.90;;;;;;5076509;28;20043;-66
2021/07/08 01:36:20;;;;;;;15.98;7.78;;;14.80;99.90;;;;;;5079034;28;20036;-66
2021/07/08 01:38:46;;;;;;;10.40;8.48;;;14.80;99.90;;;;;;5081975;28;20040;-66
2021/07/08 01:41:12;;;;;;;9.52;8.60;;;14.80;99.90;;;;;;5079114;28;20048;-66
2021/07/08 01:43:41;;;;;;;9.15;8.35;;;14.80;99.90;;;;;;5075338;28;20143;-66
2021/07/08 01:46:09;;;;;;;9.25;8.32;;;14.80;99.90;;;;;;5094210;28;20032;-66
2021/07/08 01:48:36;;;;;;;12.88;8.55;;;14.80;99.90;;;;;;5078103;28;20052;-66
2021/07/08 01:51:11;;;;;;;11.20;8.15;;;14.80;99.90;;;;;;5078992;28;20121;-66
2021/07/08 01:53:37;;;;;;;9.48;8.70;;;14.70;99.90;;;;;;5077274;28;20056;-66
2021/07/08 01:56:03;;;;;;;11.63;8.98;;;14.70;99.90;;;;;;5077404;28;20444;-66
2021/07/08 01:58:29;;;;;;;8.85;7.88;;;14.70;99.90;;;;;;5078306;28;20066;-66
2021/07/08 02:00:55;;;;;;;10.18;9.27;;;14.70;99.90;;;;;;5079881;28;20116;-66
2021/07/08 02:03:21;;;;;;;11.13;7.78;;;14.70;99.90;;;;;;5072786;28;20028;-66
2021/07/08 02:05:47;;;;;;;10.73;8.70;;;14.70;99.90;;;;;;5079696;28;20667;-66
2021/07/08 02:08:13;;;;;;;10.90;9.90;;;14.70;99.90;;;;;;5079485;28;20047;-66
2021/07/08 02:10:39;;;;;;;10.05;8.63;;;14.70;99.90;;;;;;5082432;28;20040;-66
2021/07/08 02:13:05;;;;;;;7.90;6.70;;;14.70;99.90;;;;;;5073680;28;20097;-66
2021/07/08 02:15:31;;;;;;;7.82;7.13;;;14.60;99.90;;;;;;5081386;28;20051;-66
2021/07/08 02:17:57;;;;;;;7.50;6.78;;;14.60;99.90;;;;;;5080469;28;20043;-66
2021/07/08 02:20:23;;;;;;;7.80;7.20;;;14.60;99.90;;;;;;5079861;28;20619;-66
2021/07/08 02:22:49;;;;;;;6.45;5.85;;;14.60;99.90;;;;;;5076663;28;20514;-66
2021/07/08 02:25:15;;;;;;;5.70;5.20;;;14.60;99.90;;;;;;5074212;28;20047;-65
2021/07/08 02:27:42;;;;;;;6.30;5.70;;;14.50;99.90;;;;;;5078939;28;20042;-66
2021/07/08 02:30:11;;;;;;;8.00;5.95;;;14.50;99.90;;;;;;5080014;28;20044;-66
2021/07/08 02:32:38;;;;;;;6.35;5.80;;;14.50;99.90;;;;;;5081454;28;20159;-66
2021/07/08 02:35:06;;;;;;;6.55;6.05;;;14.40;99.90;;;;;;5083300;28;20482;-66
2021/07/08 02:37:32;;;;;;;19.45;5.18;;;14.40;99.90;;;;;;5081263;28;20036;-66
2021/07/08 02:39:58;;;;;;;4.82;4.53;;;14.30;99.90;;;;;;5082825;28;20052;-66
2021/07/08 02:42:24;;;;;;;8.95;4.22;;;14.30;99.90;;;;;;5074659;28;20036;-66
2021/07/08 02:44:50;;;;;;;5.63;5.15;;;14.30;99.90;;;;;;5082349;28;20043;-66
2021/07/08 02:47:16;;;;;;;6.18;5.60;;;14.30;99.90;;;;;;5082418;28;20462;-66
2021/07/08 02:49:42;;;;;;;7.43;6.82;;;14.20;99.90;;;;;;5082231;28;20044;-66
2021/07/08 02:52:08;;;;;;;8.38;7.70;;;14.20;99.90;;;;;;5078025;28;20036;-65
2021/07/08 02:54:35;;;;;;;7.55;6.43;;;14.10;99.90;;;;;;5080564;28;20080;-66
2021/07/08 02:57:02;;;;;;;5.60;5.20;;;14.10;99.90;;;;;;5082519;28;20043;-66
2021/07/08 02:59:27;;;;;;;4.97;4.55;;;14.10;99.90;;;;;;5084777;28;20028;-66
2021/07/08 03:01:53;;;;;;;5.90;4.70;;;14.10;99.90;;;;;;5080603;28;20508;-65
2021/07/08 03:04:19;;;;;;;5.00;4.20;;;14.10;99.90;;;;;;5079888;28;20387;-66
2021/07/08 03:06:45;;;;;;;5.60;4.18;;;14.10;99.90;;;;;;5082620;28;20032;-66
2021/07/08 03:09:16;;;;;;;4.32;3.80;;;14.10;99.90;;;;;;5086330;28;20127;-66
2021/07/08 03:11:42;;;;;;;4.18;3.70;;;14.00;99.90;;;;;;5083972;28;20040;-66
2021/07/08 03:14:07;;;;;;;6.97;4.50;;;14.00;99.90;;;;;;5081044;28;20048;-66
2021/07/08 03:16:33;;;;;;;6.13;5.25;;;14.00;99.90;;;;;;5082020;28;20076;-66
2021/07/08 03:19:08;;;;;;;5.75;5.10;;;14.00;99.90;;;;;;5082458;28;20051;-66
2021/07/08 03:21:34;;;;;;;7.45;5.47;;;14.00;99.90;;;;;;5079250;28;20048;-65
2021/07/08 03:24:00;;;;;;;11.13;5.28;;;14.00;99.90;;;;;;5076299;28;20040;-65
2021/07/08 03:26:26;;;;;;;6.95;4.20;;;13.90;99.90;;;;;;5077773;28;20032;-66
2021/07/08 03:28:52;;;;;;;6.18;4.10;;;13.80;99.90;;;;;;5083640;28;20055;-66
2021/07/08 03:31:19;;;;;;;5.07;4.57;;;13.80;99.90;;;;;;5078325;28;20093;-66
2021/07/08 03:33:45;;;;;;;5.93;5.43;;;13.70;99.90;;;;;;5076917;28;20078;-66
2021/07/08 03:36:10;;;;;;;6.22;5.03;;;13.70;99.90;;;;;;5081431;28;20137;-66
2021/07/08 03:38:37;;;;;;;5.90;5.30;;;13.70;99.90;;;;;;5084990;28;20068;-66
2021/07/08 03:41:02;;;;;;;6.75;4.97;;;13.60;99.90;;;;;;5081808;28;21670;-66
2021/07/08 03:43:28;;;;;;;4.75;4.40;;;13.50;99.90;;;;;;5076514;28;20033;-66
2021/07/08 03:45:54;;;;;;;5.35;4.85;;;13.60;99.90;;;;;;5083915;28;20040;-66
2021/07/08 03:48:20;;;;;;;6.63;4.70;;;13.60;99.90;;;;;;5078247;28;20059;-66
2021/07/08 03:50:45;;;;;;;6.22;5.00;;;13.60;99.90;;;;;;5082508;28;20044;-66
2021/07/08 03:53:11;;;;;;;6.10;5.60;;;13.50;99.90;;;;;;5077688;28;20076;-66
2021/07/08 03:55:37;;;;;;;6.72;6.13;;;13.50;99.90;;;;;;5080422;28;20048;-66
2021/07/08 03:58:04;;;;;;;5.90;5.47;;;13.50;99.90;;;;;;5080457;28;20589;-65
2021/07/08 04:00:32;;;;;;;5.47;5.00;;;13.50;99.90;;;;;;5079506;28;20058;-66
2021/07/08 04:03:01;;;;;;;6.18;4.43;;;13.50;99.90;;;;;;5076492;28;20052;-66
2021/07/08 04:05:27;;;;;;;5.15;4.50;;;13.60;99.90;;;;;;5079116;28;20058;-66
2021/07/08 04:07:53;;;;;;;5.43;4.93;;;13.60;99.90;;;;;;5080053;28;20804;-65
2021/07/08 04:10:18;;;;;;;4.90;4.50;;;13.60;99.90;;;;;;5082579;28;20036;-66
2021/07/08 04:12:46;;;;;;;7.35;6.75;;;13.70;99.90;;;;;;5076879;28;20044;-66
2021/07/08 04:15:12;;;;;;;7.65;6.95;;;13.80;99.90;;;;;;5080921;28;20044;-66
2021/07/08 04:17:38;;;;;;;8.00;7.40;;;13.90;99.90;;;;;;5079589;28;20094;-66
2021/07/08 04:20:07;;;;;;;5.82;5.32;;;14.00;99.90;;;;;;5080771;28;20128;-66
2021/07/08 04:22:33;;;;;;;6.22;5.57;;;14.00;99.90;;;;;;5075787;28;20045;-66
2021/07/08 04:24:59;;;;;;;9.63;8.75;;;14.10;99.90;;;;;;5094504;28;20036;-66
2021/07/08 04:27:27;;;;;;;11.18;10.00;;;14.10;99.90;;;;;;5080709;28;20036;-66
2021/07/08 04:29:54;;;;;;;8.88;8.07;;;14.20;99.90;;;;;;5079493;28;20032;-66
2021/07/08 04:32:20;;;;;;;9.45;8.65;;;14.30;99.90;;;;;;5076383;28;20882;-66
2021/07/08 04:34:46;;;;;;;7.68;7.03;;;14.40;99.90;;;;;;5082697;28;20047;-65
2021/07/08 04:37:12;;;;;;;7.93;7.20;;;14.50;99.90;;;;;;5084460;28;21479;-66
2021/07/08 04:39:38;;;;;;;9.52;7.55;;;14.60;99.90;;;;;;5080101;28;20087;-66
2021/07/08 04:42:04;;;;;;;8.65;7.95;;;14.80;99.90;;;;;;5082073;28;20044;-66
2021/07/08 04:44:30;;;;;;;8.48;7.72;;;14.90;99.90;;;;;;5078281;28;20043;-66
2021/07/08 04:46:56;;;;;;;6.97;6.35;;;15.00;99.90;;;;;;5082136;28;20059;-66
2021/07/08 04:49:22;;;;;;;8.15;6.68;;;15.10;99.90;;;;;;5082377;28;20545;-66
2021/07/08 04:51:49;;;;;;;7.50;6.90;;;15.20;99.90;;;;;;5080687;28;20096;-65
2021/07/08 04:54:14;;;;;;;8.13;5.97;;;15.50;99.90;;;;;;5073813;28;20505;-66
2021/07/08 04:56:41;;;;;;;6.38;5.88;;;16.20;99.90;;;;;;5083828;28;20055;-66
2021/07/08 04:59:07;;;;;;;5.15;4.70;;;17.50;99.90;;;;;;5082724;28;20040;-66
2021/07/08 05:01:32;;;;;;;4.38;3.97;;;18.90;99.90;;;;;;5080575;28;20494;-66
2021/07/08 05:04:00;;;;;;;4.53;4.13;;;20.20;99.90;;;;;;5076133;28;20041;-66
2021/07/08 05:06:26;;;;;;;5.45;4.20;;;21.20;99.90;;;;;;5079427;28;20040;-66
2021/07/08 05:08:52;;;;;;;4.45;4.05;;;21.90;98.00;;;;;;5087760;28;20043;-66
2021/07/08 05:11:18;;;;;;;10.60;4.90;;;21.90;97.00;;;;;;5081728;28;21701;-66
2021/07/08 05:13:43;;;;;;;5.43;5.03;;;21.90;96.90;;;;;;5076186;28;20051;-67
2021/07/08 05:16:09;;;;;;;7.40;5.68;;;21.90;97.00;;;;;;5077721;28;20492;-66
2021/07/08 05:18:35;;;;;;;5.65;5.15;;;21.90;96.90;;;;;;5082071;28;20464;-66
2021/07/08 05:21:01;;;;;;;7.00;6.30;;;21.80;97.30;;;;;;5079184;28;20131;-67
2021/07/08 05:23:27;;;;;;;7.65;5.80;;;21.70;97.70;;;;;;5078707;28;20071;-66
2021/07/08 05:25:54;;;;;;;5.30;4.80;;;21.60;98.10;;;;;;5082321;28;20048;-66
2021/07/08 05:28:20;;;;;;;6.28;5.68;;;21.50;99.00;;;;;;5083926;28;20610;-66
2021/07/08 05:30:46;;;;;;;8.05;6.45;;;21.60;99.60;;;;;;5080544;28;20371;-66
2021/07/08 05:33:12;;;;;;;7.90;6.22;;;21.50;99.70;;;;;;5071035;28;20418;-66
2021/07/08 05:35:37;;;;;;;6.45;5.72;;;21.40;99.90;;;;;;5081082;28;20040;-66
2021/07/08 05:38:05;;;;;;;7.55;5.93;;;21.30;99.90;;;;;;5080133;28;20541;-66
2021/07/08 05:40:32;;;;;;;8.57;6.43;;;21.40;99.90;;;;;;5080772;28;20402;-66
2021/07/08 05:42:57;;;;;;;8.48;6.55;;;21.70;99.90;;;;;;5074590;28;20730;-66
2021/07/08 05:45:23;;;;;;;13.35;7.35;;;21.90;98.30;;;;;;5078405;28;20048;-66
2021/07/08 05:47:50;;;;;;;12.43;7.07;;;22.20;98.90;;;;;;5079899;28;20040;-66
2021/07/08 05:50:16;;;;;;;13.95;8.85;;;22.40;98.40;;;;;;5080727;28;20071;-66
2021/07/08 05:52:42;;;;;;;8.55;7.55;;;22.60;96.70;;;;;;5074522;28;20276;-66
2021/07/08 05:55:09;;;;;;;11.75;7.75;;;22.80;95.80;;;;;;5078785;28;20054;-66
2021/07/08 05:57:35;;;;;;;11.75;7.97;;;23.00;96.20;;;;;;5080665;28;20133;-66
2021/07/08 06:00:03;;;;;;;10.18;8.38;;;23.00;96.40;;;;;;5079716;28;20032;-65
2021/07/08 06:02:28;;;;;;;11.07;8.50;;;22.90;96.20;;;;;;5075697;28;20044;-66
2021/07/08 06:04:54;;;;;;;9.60;8.63;;;22.70;96.40;;;;;;5078254;28;20463;-66
2021/07/08 06:07:20;;;;;;;10.02;8.85;;;22.60;96.50;;;;;;5082255;28;20482;-66
2021/07/08 06:09:46;;;;;;;11.80;8.38;;;22.60;96.80;;;;;;5084152;28;20044;-66
2021/07/08 06:12:12;;;;;;;9.70;8.77;;;22.60;96.70;;;;;;5079250;28;20032;-66
2021/07/08 06:14:37;;;;;;;9.50;8.40;;;22.60;96.80;;;;;;5083689;28;20576;-66
2021/07/08 06:17:06;;;;;;;9.52;8.18;;;22.70;96.40;;;;;;5081985;28;20115;-65
2021/07/08 06:19:32;;;;;;;10.43;8.40;;;22.70;96.50;;;;;;5084114;28;20036;-66
2021/07/08 06:21:58;;;;;;;13.20;9.35;;;22.80;96.60;;;;;;5080086;28;20050;-65
2021/07/08 06:24:24;;;;;;;10.32;8.52;;;23.00;95.70;;;;;;5076617;28;20037;-66
2021/07/08 06:26:49;;;;;;;12.63;9.13;;;23.30;94.80;;;;;;5082683;28;20036;-66
2021/07/08 06:29:15;;;;;;;14.38;8.48;;;23.50;95.20;;;;;;5082788;28;20481;-65
2021/07/08 06:31:41;;;;;;;10.60;8.10;;;23.50;94.90;;;;;;5080471;28;20037;-66
2021/07/08 06:34:07;;;;;;;12.20;8.85;;;23.70;94.80;;;;;;5078747;28;20044;-66
2021/07/08 06:36:33;;;;;;;9.10;8.20;;;23.90;94.90;;;;;;5083652;28;20052;-66
2021/07/08 06:38:59;;;;;;;9.55;8.18;;;24.10;94.80;;;;;;5083133;28;20144;-66
2021/07/08 06:41:24;;;;;;;11.35;8.18;;;24.30;94.60;;;;;;5080627;28;20061;-66
2021/07/08 06:43:50;;;;;;;13.00;8.90;;;24.50;94.60;;;;;;5081428;28;20035;-66
2021/07/08 06:46:17;;;;;;;9.38;7.72;;;24.70;94.30;;;;;;5086598;28;20111;-66
2021/07/08 06:48:46;;;;;;;12.35;7.93;;;24.80;94.50;;;;;;5085471;28;20036;-66
2021/07/08 06:51:12;;;;;;;10.00;7.53;;;24.90;94.80;;;;;;5083013;28;20044;-66
2021/07/08 06:53:38;;;;;;;8.65;7.47;;;25.00;94.80;;;;;;5081441;28;20130;-66
2021/07/08 06:56:05;;;;;;;12.40;7.90;;;25.20;94.30;;;;;;5076042;28;20071;-66
2021/07/08 06:58:31;;;;;;;8.63;7.47;;;25.20;94.00;;;;;;5083850;28;20040;-66
2021/07/08 07:00:57;;;;;;;11.07;7.82;;;25.30;93.30;;;;;;5081566;28;20028;-66
2021/07/08 07:03:23;;;;;;;10.20;8.05;;;25.50;93.20;;;;;;5079252;28;20040;-66
2021/07/08 07:05:48;;;;;;;9.10;8.20;;;25.60;93.30;;;;;;5082536;28;20725;-66
2021/07/08 07:08:17;;;;;;;13.82;8.48;;;25.60;92.30;;;;;;5080355;28;20115;-66
2021/07/08 07:10:43;;;;;;;9.07;8.15;;;25.80;93.50;;;;;;5087243;28;20036;-67
2021/07/08 07:13:11;;;;;;;10.88;9.05;;;25.90;92.90;;;;;;5080096;28;20043;-66
2021/07/08 07:15:39;;;;;;;10.43;8.50;;;26.00;91.40;;;;;;5085942;28;20428;-66
2021/07/08 07:18:06;;;;;;;8.75;7.95;;;26.00;91.50;;;;;;5082666;28;20036;-66
2021/07/08 07:20:32;;;;;;;8.52;7.80;;;26.10;92.40;;;;;;5083635;28;20051;-66
2021/07/08 07:22:58;;;;;;;8.68;7.57;;;26.20;92.10;;;;;;5076155;28;20615;-66
2021/07/08 07:25:25;;;;;;;10.82;7.50;;;26.30;91.70;;;;;;5081082;28;20047;-66
2021/07/08 07:27:52;;;;;;;8.88;7.28;;;26.40;92.10;;;;;;5083371;28;20123;-66
2021/07/08 07:30:21;;;;;;;9.30;7.55;;;26.50;91.60;;;;;;5082567;28;20067;-66
2021/07/08 07:32:47;;;;;;;11.32;7.68;;;26.60;90.20;;;;;;5079077;28;20090;-66
2021/07/08 07:35:13;;;;;;;8.93;7.22;;;26.70;89.70;;;;;;5078341;28;20044;-66
2021/07/08 07:37:39;;;;;;;10.65;8.00;;;26.80;90.10;;;;;;5077573;28;20118;-66
2021/07/08 07:40:07;;;;;;;9.70;6.53;;;26.90;89.00;;;;;;5080086;28;20044;-66
2021/07/08 07:42:34;;;;;;;7.22;5.85;;;26.90;88.90;;;;;;5075236;28;20110;-66
2021/07/08 07:45:03;;;;;;;9.27;5.95;;;26.90;85.10;;;;;;5076303;28;20074;-66
2021/07/08 07:47:29;;;;;;;7.25;6.10;;;26.90;83.30;;;;;;5079049;28;20044;-66
2021/07/08 07:49:55;;;;;;;10.13;6.35;;;27.00;82.30;;;;;;5074470;28;20040;-66
2021/07/08 07:52:21;;;;;;;9.20;6.18;;;26.90;84.90;;;;;;5071542;28;20049;-66
2021/07/08 07:54:47;;;;;;;6.43;5.70;;;26.90;82.90;;;;;;5075321;28;20563;-66
2021/07/08 07:57:12;;;;;;;9.00;5.78;;;26.90;84.60;;;;;;5080732;28;20075;-66
2021/07/08 07:59:39;;;;;;;10.13;5.35;;;26.90;82.70;;;;;;5082396;28;20070;-66
2021/07/08 08:02:13;;;;;;;9.20;5.15;;;26.80;82.30;;;;;;5076957;28;20036;-66
2021/07/08 08:04:44;;;;;;;7.95;5.03;;;26.80;83.80;;;;;;5081940;28;20040;-66
2021/07/08 08:09:55;;;;;;;9.93;5.57;;;26.60;86.50;;;;;;5085433;28;20078;-66
2021/07/08 08:12:23;;;;;;;7.68;5.03;;;26.70;85.70;;;;;;5074681;28;20044;-66
2021/07/08 08:14:50;;;;;;;11.20;3.85;;;26.80;83.20;;;;;;5078820;28;20455;-66
2021/07/08 08:17:16;;;;;;;6.07;4.07;;;26.80;85.60;;;;;;5076871;28;20040;-66
2021/07/08 08:19:42;;;;;;;7.03;3.72;;;27.00;85.80;;;;;;5079799;28;20135;-67
2021/07/08 08:22:23;;;;;;;8.57;5.20;;;27.20;84.10;;;;;;5074766;28;20151;-66
2021/07/08 08:24:50;;;;;;;8.63;4.60;;;27.40;84.90;;;;;;5076054;28;20040;-65
2021/07/08 08:27:28;;;;;;;5.32;3.92;;;27.30;85.20;;;;;;5081071;28;20076;-66
2021/07/08 08:29:54;;;;;;;6.95;4.50;;;27.50;85.50;;;;;;5077606;28;20104;-67
2021/07/08 08:32:20;;;;;;;7.40;3.65;;;27.70;82.20;;;;;;5071458;28;20480;-67
2021/07/08 08:34:45;;;;;;;15.23;4.18;;;27.70;78.20;;;;;;5076411;28;21424;-66
2021/07/08 08:37:11;;;;;;;6.55;3.33;;;27.70;79.00;;;;;;5077069;28;20085;-66
2021/07/08 08:39:37;;;;;;;4.93;2.90;;;27.80;81.40;;;;;;5078537;28;20083;-67
2021/07/08 08:42:07;;;;;;;7.63;3.60;;;27.90;79.70;;;;;;5073541;28;20051;-66
2021/07/08 08:44:33;;;;;;;5.45;3.53;;;28.00;81.40;;;;;;5074201;28;20044;-66
2021/07/08 08:46:58;;;;;;;5.70;3.13;;;27.90;81.10;;;;;;5075466;28;20039;-66
2021/07/08 08:49:24;;;;;;;5.78;3.13;;;27.90;80.00;;;;;;5076918;28;20123;-66
2021/07/08 08:51:50;;;;;;;6.07;3.00;;;28.00;80.80;;;;;;5074580;28;20055;-66
2021/07/08 08:54:17;;;;;;;4.85;3.30;;;28.00;75.30;;;;;;5073457;28;20044;-66
2021/07/08 08:56:42;;;;;;;4.28;2.50;;;27.90;76.90;;;;;;5076116;28;20107;-66
2021/07/08 08:59:08;;;;;;;6.40;2.47;;;28.00;77.10;;;;;;5076402;28;20040;-66
2021/07/08 09:01:35;;;;;;;5.15;2.38;;;27.90;72.70;;;;;;5073189;28;20049;-66
2021/07/08 09:04:00;;;;;;;5.50;2.30;;;28.00;69.00;;;;;;5071495;28;21220;-67
2021/07/08 09:06:36;;;;;;;8.20;3.53;;;28.00;74.00;;;;;;5077382;28;20040;-67
2021/07/08 09:09:14;;;;;;;7.35;3.20;;;28.00;75.80;;;;;;5076301;28;20131;-67
2021/07/08 09:11:40;;;;;;;5.88;2.22;;;28.00;73.30;;;;;;5081355;28;20032;-66
2021/07/08 09:14:07;;;;;;;9.18;3.38;;;27.80;71.40;;;;;;5070668;28;20949;-66
2021/07/08 09:16:41;;;;;;;5.70;2.65;;;27.60;76.10;;;;;;5080362;28;20063;-66
2021/07/08 09:19:19;;;;;;;5.37;2.33;;;27.50;77.90;;;;;;5077426;28;20435;-66
2021/07/08 09:21:51;;;;;;;5.93;2.35;;;27.50;77.60;;;;;;5076593;28;20040;-67
2021/07/08 09:24:19;;;;;;;7.65;3.05;;;27.40;81.10;;;;;;5072630;28;20452;-66
2021/07/08 09:26:59;;;;;;;4.38;2.83;;;27.40;80.80;;;;;;5078712;28;20071;-67
2021/07/08 09:29:38;;;;;;;5.40;2.50;;;27.10;81.50;;;;;;5074957;28;20046;-66
2021/07/08 09:32:11;;;;;;;6.30;2.70;;;26.90;80.70;;;;;;5072991;28;20085;-66
2021/07/08 09:34:40;;;;;;;8.23;2.88;;;26.60;80.50;;;;;;5073660;28;20054;-66
2021/07/08 09:37:25;;;;;;;7.40;2.83;;;26.30;83.40;;;;;;5073829;28;20040;-66
2021/07/08 09:39:53;;;;;;;7.85;2.95;;;26.10;84.20;;;;;;5077603;28;20064;-66
2021/07/08 09:42:45;;;;;;;3.17;2.28;;;26.10;86.10;;;;;;5088750;28;20040;-66
2021/07/08 09:45:13;;;;;;;4.10;2.75;;;26.30;87.50;;;;;;5074906;28;20135;-66
2021/07/08 09:47:44;;;;;;;8.48;3.13;;;26.50;87.20;;;;;;5077577;28;20085;-66
2021/07/08 09:50:33;;;;;;;6.82;3.30;;;26.70;87.10;;;;;;5077129;28;20047;-66
2021/07/08 09:53:05;;;;;;;5.72;2.90;;;26.50;84.50;;;;;;5061579;28;20055;-67
2021/07/08 09:58:28;;;;;;;5.70;2.88;;;26.40;86.30;;;;;;5078100;28;20044;-66
2021/07/08 10:00:54;;;;;;;5.47;2.67;;;26.50;85.70;;;;;;5074781;28;20050;-66
2021/07/08 10:03:20;;;;;;;8.20;2.92;;;26.70;85.40;;;;;;5067308;28;20378;-66
2021/07/08 10:05:46;;;;;;;7.05;3.05;;;26.80;85.00;;;;;;5072789;28;20041;-66
2021/07/08 10:08:13;;;;;;;7.57;2.88;;;27.00;85.50;;;;;;5074670;28;21332;-66
2021/07/08 10:10:40;;;;;;;5.18;2.70;;;27.30;81.40;;;;;;5083264;28;20040;-66
2021/07/08 10:13:08;;;;;;;5.25;2.50;;;27.40;81.40;;;;;;5074357;28;20048;-66
2021/07/08 10:15:37;;;;;;;6.43;3.53;;;27.40;79.10;;;;;;5073829;28;20129;-66
2021/07/08 10:18:04;;;;;;;5.88;2.60;;;27.20;77.60;;;;;;5073474;28;20036;-67
2021/07/08 10:20:31;;;;;;;6.13;3.05;;;27.20;80.30;;;;;;5075938;28;20028;-66
2021/07/08 10:22:58;;;;;;;8.48;3.22;;;27.10;80.00;;;;;;5068156;28;20085;-66
2021/07/08 10:25:24;;;;;;;4.38;2.55;;;27.10;80.30;;;;;;5078014;28;20359;-66
2021/07/08 10:27:54;;;;;;;5.10;2.80;;;27.00;80.90;;;;;;5076095;28;20447;-66
2021/07/08 10:30:21;;;;;;;6.03;2.65;;;27.00;82.80;;;;;;5080317;28;20557;-67
2021/07/08 10:33:07;;;;;;;7.00;3.30;;;27.10;79.50;;;;;;5074921;28;20048;-66
2021/07/08 10:35:43;;;;;;;5.35;2.17;;;27.30;77.40;;;;;;5078676;28;20060;-66
2021/07/08 10:38:27;;;;;;;4.63;2.25;;;27.40;78.60;;;;;;5078544;28;20032;-66
2021/07/08 10:40:54;;;;;;;6.05;2.92;;;27.50;80.90;;;;;;5082374;28;20044;-66
2021/07/08 10:43:42;;;;;;;4.80;2.40;;;27.50;77.40;;;;;;5072306;28;20046;-66
2021/07/08 10:46:12;;;;;;;6.60;3.33;;;27.40;79.00;;;;;;5075372;28;20389;-66
2021/07/08 10:48:41;;;;;;;4.28;2.88;;;27.50;75.70;;;;;;5075065;28;20036;-66
2021/07/08 10:51:14;;;;;;;5.30;2.88;;;27.50;75.90;;;;;;5074786;28;20032;-66
2021/07/08 10:53:41;;;;;;;6.70;2.88;;;27.50;77.30;;;;;;5074121;28;20374;-66
2021/07/08 10:56:09;;;;;;;4.38;2.92;;;27.40;79.30;;;;;;5075299;28;20495;-66
2021/07/08 10:58:55;;;;;;;9.07;3.03;;;27.30;78.60;;;;;;5080334;28;20669;-66
2021/07/08 11:01:25;;;;;;;4.90;3.15;;;27.40;76.40;;;;;;5076937;28;20032;-66
2021/07/08 11:03:59;;;;;;;6.85;3.10;;;27.40;81.60;;;;;;5077338;28;20036;-66
2021/07/08 11:06:30;;;;;;;8.98;3.10;;;27.50;80.80;;;;;;5080475;28;20032;-66
2021/07/08 11:09:13;;;;;;;6.38;2.75;;;27.50;80.90;;;;;;5082595;28;20035;-66
2021/07/08 11:11:38;;;;;;;6.03;2.92;;;27.60;76.10;;;;;;5082594;28;20035;-66
2021/07/08 11:14:07;;;;;;;6.63;3.08;;;27.60;74.50;;;;;;5074257;28;20112;-66
2021/07/08 11:16:42;;;;;;;6.13;3.83;;;27.50;76.90;;;;;;5078435;28;20048;-66
2021/07/08 11:19:13;;;;;;;4.85;2.83;;;27.60;78.60;;;;;;5078312;28;20135;-67
2021/07/08 11:22:06;;;;;;;5.43;2.97;;;27.70;77.60;;;;;;5075402;28;20118;-66
2021/07/08 11:24:44;;;;;;;4.95;2.70;;;27.70;76.60;;;;;;5077185;28;20485;-66
2021/07/08 11:27:32;;;;;;;7.95;2.50;;;27.80;77.00;;;;;;5078828;28;20037;-66
2021/07/08 11:30:03;;;;;;;6.88;2.90;;;27.80;76.00;;;;;;5078553;28;20035;-67
2021/07/08 11:32:43;;;;;;;5.07;2.97;;;27.70;71.60;;;;;;5073541;28;20472;-66
2021/07/08 11:35:21;;;;;;;8.50;2.97;;;27.60;70.60;;;;;;5076646;28;20032;-66
2021/07/08 11:38:02;;;;;;;6.45;2.75;;;27.50;74.00;;;;;;5077438;28;20032;-66
2021/07/08 11:40:35;;;;;;;4.45;2.45;;;27.30;73.30;;;;;;5079963;28;20040;-66
2021/07/08 11:43:36;;;;;;;6.05;2.60;;;27.10;74.20;;;;;;5071652;28;21005;-66
2021/07/08 11:46:08;;;;;;;6.43;2.92;;;27.00;76.90;;;;;;5078015;28;20037;-66
2021/07/08 11:48:40;;;;;;;5.68;2.85;;;27.10;79.80;;;;;;5077824;28;20040;-66
2021/07/08 11:51:28;;;;;;;4.47;2.70;;;27.30;80.20;;;;;;5076258;28;20162;-66
2021/07/08 11:53:55;;;;;;;6.72;2.80;;;27.50;73.20;;;;;;5069855;28;20036;-66
2021/07/08 11:56:24;;;;;;;5.75;2.28;;;27.50;75.40;;;;;;5078634;28;20052;-66
2021/07/08 11:58:50;;;;;;;4.97;2.35;;;27.60;79.80;;;;;;5079549;28;20047;-66
2021/07/08 12:01:21;;;;;;;6.78;2.15;;;27.70;79.80;;;;;;5076628;28;20694;-66
2021/07/08 12:03:54;;;;;;;4.28;2.17;;;27.80;78.00;;;;;;5072762;28;20597;-66
2021/07/08 12:06:24;;;;;;;3.90;1.95;;;27.90;76.20;;;;;;5077935;28;21282;-66
2021/07/08 12:09:10;;;;;;;6.38;2.35;;;27.90;73.20;;;;;;5077438;28;20035;-66
2021/07/08 12:11:43;;;;;;;7.05;1.80;;;27.60;72.40;;;;;;5074608;28;20125;-66
2021/07/08 12:14:13;;;;;;;4.70;1.40;;;27.40;72.90;;;;;;5073777;28;21008;-66
2021/07/08 12:16:40;;;;;;;3.75;1.77;;;27.10;71.20;;;;;;5076587;28;20099;-66
2021/07/08 12:19:22;;;;;;;5.80;1.67;;;26.80;74.30;;;;;;5076104;28;20047;-66
2021/07/08 12:21:49;;;;;;;4.85;1.65;;;26.50;74.10;;;;;;5076187;28;20071;-67
2021/07/08 12:24:29;;;;;;;3.95;1.80;;;26.50;75.30;;;;;;5073672;28;20039;-66
2021/07/08 12:26:57;;;;;;;3.70;1.27;;;26.40;78.00;;;;;;5076085;28;20056;-66
2021/07/08 12:29:32;;;;;;;2.60;1.23;;;26.40;78.30;;;;;;5075235;28;20036;-66
2021/07/08 12:32:12;;;;;;;2.65;1.40;;;26.40;78.90;;;;;;5072772;28;20054;-66
2021/07/08 12:34:53;;;;;;;4.15;1.40;;;26.40;80.40;;;;;;5074609;28;20040;-66
2021/07/08 12:37:28;;;;;;;3.17;1.48;;;26.40;79.50;;;;;;5076948;28;20075;-66
2021/07/08 12:40:06;;;;;;;2.75;1.10;;;26.40;80.60;;;;;;5074814;28;20039;-66
2021/07/08 12:42:42;;;;;;;3.42;1.17;;;26.30;80.70;;;;;;5069881;28;20987;-66
2021/07/08 12:45:14;;;;;;;5.28;1.45;;;26.20;79.80;;;;;;5075634;28;20379;-66
2021/07/08 12:47:57;;;;;;;4.60;1.60;;;26.10;79.20;;;;;;5078561;28;20093;-66
2021/07/08 12:50:28;;;;;;;4.00;2.10;;;26.10;78.80;;;;;;5078884;28;20043;-66
2021/07/08 12:52:56;;;;;;;7.88;1.35;;;26.10;80.10;;;;;;5070308;28;20044;-66
2021/07/08 12:55:42;;;;;;;1.70;1.02;;;26.00;79.10;;;;;;5077562;28;20055;-66
2021/07/08 12:58:15;;;;;;;3.45;1.00;;;26.00;80.50;;;;;;5092348;28;20490;-66